Catimbau, Brazil
Current Conditions -  °F | °C
As of 10:00 PM on Saturday 22 Nov 2014 (Local Time) from SBMO Reporting Station
Clear Clear  
Wind Chill: 72°   Ceiling: Unl
Heat Index: 72°   Visibility: 6mi
Dew Point: 70°   Wind: 5mph
Humidity: 94%   Direction: 20°NNE
Pressure: 29.97"   Gusts: NA
Location:  8.59°S, 37.25°W
Report Text: SBMO 230100Z 02004KT CAVOK 22/21 Q1015
Loading
Personal Weather Stations






























Interactive Weather Map New forecast layout! Learn more

10-Day Weather Forecast

Advertisements
Track Severe Weather on mobile